createdAt,value
2023-04-09T00:00:49.432Z,7.19
2023-04-09T00:01:51.905Z,6.83
2023-04-09T00:02:53.577Z,6.87
2023-04-09T00:03:56.444Z,6.87
2023-04-09T00:04:58.182Z,6.45
2023-04-09T00:06:02.208Z,6.16
2023-04-09T00:07:03.709Z,5.98
2023-04-09T00:08:06.512Z,6.13
2023-04-09T00:09:08.069Z,6.11
2023-04-09T00:10:10.886Z,5.86
2023-04-09T00:11:12.397Z,6.06
2023-04-09T00:12:14.892Z,6.12
2023-04-09T00:13:22.575Z,5.59
2023-04-09T00:14:31.029Z,5.21
2023-04-09T00:15:32.518Z,5.43
2023-04-09T00:16:35.048Z,5.53
2023-04-09T00:17:36.777Z,5.33
2023-04-09T00:18:39.295Z,5.40
2023-04-09T00:19:40.880Z,5.19
2023-04-09T00:20:44.247Z,5.01
2023-04-09T00:21:48.263Z,5.06
2023-04-09T00:22:51.905Z,5.07
2023-04-09T00:23:53.426Z,5.03
2023-04-09T00:24:55.999Z,5.25
2023-04-09T00:25:57.550Z,5.21
2023-04-09T00:27:00.043Z,5.37
2023-04-09T00:28:01.689Z,5.12
2023-04-09T00:29:04.336Z,5.04
2023-04-09T00:30:07.259Z,5.12
2023-04-09T00:31:09.906Z,5.13
2023-04-09T00:32:11.446Z,5.24
2023-04-09T00:33:13.907Z,5.14
2023-04-09T00:34:15.868Z,5.33
2023-04-09T00:35:18.490Z,5.47
2023-04-09T00:36:19.995Z,5.80
2023-04-09T00:37:23.835Z,5.63
2023-04-09T00:38:25.403Z,5.37
2023-04-09T00:39:27.943Z,5.61
2023-04-09T00:40:29.582Z,5.80
2023-04-09T00:41:32.044Z,5.54
2023-04-09T00:42:34.517Z,5.19
2023-04-09T00:43:39.520Z,4.97
2023-04-09T00:44:41.077Z,5.19
2023-04-09T00:45:43.569Z,5.33
2023-04-09T00:46:45.249Z,5.14
2023-04-09T00:47:47.913Z,5.38
2023-04-09T00:48:49.720Z,5.31
2023-04-09T00:49:52.427Z,5.09
2023-04-09T00:50:54.049Z,5.36
2023-04-09T00:51:56.860Z,5.48
2023-04-09T00:53:00.470Z,5.47
2023-04-09T00:54:03.117Z,5.51
2023-04-09T00:55:06.007Z,5.72
2023-04-09T00:56:09.175Z,5.62
2023-04-09T00:57:11.296Z,5.65
2023-04-09T00:58:14.758Z,5.83
2023-04-09T00:59:16.474Z,5.95
2023-04-09T01:00:19.322Z,5.54
2023-04-09T01:01:20.912Z,5.40
2023-04-09T01:02:23.847Z,5.33
2023-04-09T01:03:25.862Z,5.53
2023-04-09T01:04:28.535Z,5.95
2023-04-09T01:05:37.950Z,6.02
2023-04-09T01:06:52.772Z,6.13
2023-04-09T01:08:08.783Z,5.79
2023-04-09T01:09:19.139Z,6.21
2023-04-09T01:10:28.593Z,6.38
2023-04-09T01:11:37.004Z,6.55
2023-04-09T01:12:51.222Z,6.69
2023-04-09T01:14:05.351Z,6.90
2023-04-09T01:15:09.910Z,6.94
2023-04-09T01:16:16.757Z,7.03
2023-04-09T01:17:24.348Z,7.15
2023-04-09T01:18:31.973Z,7.32
2023-04-09T01:19:42.805Z,7.33
2023-04-09T01:20:53.045Z,7.40
2023-04-09T01:21:57.832Z,7.39
2023-04-09T01:23:08.490Z,7.42
2023-04-09T01:24:21.189Z,7.44
2023-04-09T01:25:38.572Z,7.25
2023-04-09T01:26:54.764Z,7.15
2023-04-09T01:28:13.046Z,7.12
2023-04-09T01:29:17.603Z,7.14
2023-04-09T01:30:22.652Z,6.96
2023-04-09T01:31:30.088Z,7.07
2023-04-09T01:32:35.415Z,6.37
2023-04-09T01:33:38.458Z,6.20
2023-04-09T01:34:42.487Z,6.18
2023-04-09T01:35:46.718Z,6.24
2023-04-09T01:36:53.123Z,5.92
2023-04-09T01:37:55.844Z,6.20
2023-04-09T01:38:58.609Z,6.21
2023-04-09T01:40:00.403Z,6.57
2023-04-09T01:41:04.507Z,6.61
2023-04-09T01:42:09.673Z,6.77
2023-04-09T01:43:14.985Z,6.81
2023-04-09T01:44:17.834Z,6.76
2023-04-09T01:45:22.034Z,6.91
2023-04-09T01:46:25.471Z,7.04
2023-04-09T01:47:28.738Z,7.20
2023-04-09T01:48:31.567Z,6.96
2023-04-09T01:49:34.274Z,6.91
2023-04-09T01:50:35.881Z,7.13
2023-04-09T01:51:38.933Z,7.18
2023-04-09T01:52:41.190Z,7.22
2023-04-09T01:53:43.799Z,7.36
2023-04-09T01:54:45.293Z,7.40
2023-04-09T01:55:47.831Z,7.53
2023-04-09T01:56:49.462Z,7.53
2023-04-09T01:57:51.929Z,7.63
2023-04-09T01:58:55.026Z,7.65
2023-04-09T01:59:57.772Z,7.61
2023-04-09T02:01:05.606Z,7.66
2023-04-09T02:02:13.189Z,7.66
2023-04-09T02:03:18.850Z,7.70
2023-04-09T02:04:25.115Z,7.76
2023-04-09T02:05:31.808Z,7.73
2023-04-09T02:06:40.110Z,7.61
2023-04-09T02:07:45.425Z,7.45
2023-04-09T02:08:48.785Z,7.39
2023-04-09T02:09:53.291Z,7.44
2023-04-09T02:11:03.255Z,7.51
2023-04-09T02:12:07.046Z,7.44
2023-04-09T02:13:12.649Z,7.22
2023-04-09T02:14:16.302Z,7.16
2023-04-09T02:15:21.314Z,7.20
2023-04-09T02:16:23.392Z,7.24
2023-04-09T02:17:25.913Z,7.23
2023-04-09T02:18:29.539Z,7.25
2023-04-09T02:19:42.215Z,7.22
2023-04-09T02:20:43.801Z,7.15
2023-04-09T02:21:47.113Z,7.16
2023-04-09T02:22:48.761Z,6.99
2023-04-09T02:23:51.307Z,6.98
2023-04-09T02:24:52.880Z,6.87
2023-04-09T02:25:55.797Z,5.88
2023-04-09T02:26:57.854Z,5.63
2023-04-09T02:28:00.358Z,5.86
2023-04-09T02:29:01.944Z,6.02
2023-04-09T02:30:06.810Z,6.20
2023-04-09T02:31:08.386Z,6.32
2023-04-09T02:32:10.966Z,6.38
2023-04-09T02:33:12.500Z,6.47
2023-04-09T02:34:15.041Z,6.52
2023-04-09T02:35:16.582Z,6.59
2023-04-09T02:36:19.094Z,6.63
2023-04-09T02:37:20.775Z,6.54
2023-04-09T02:38:23.408Z,6.58
2023-04-09T02:39:25.139Z,6.50
2023-04-09T02:40:27.981Z,6.50
2023-04-09T02:41:31.744Z,6.52
2023-04-09T02:42:34.412Z,6.46
2023-04-09T02:43:36.162Z,6.39
2023-04-09T02:44:38.624Z,6.38
2023-04-09T02:45:42.488Z,6.24
2023-04-09T02:46:45.973Z,6.20
2023-04-09T02:47:47.583Z,6.21
2023-04-09T02:48:50.399Z,6.16
2023-04-09T02:49:52.212Z,6.04
2023-04-09T02:50:55.198Z,6.04
2023-04-09T02:51:56.761Z,6.06
2023-04-09T02:52:59.792Z,6.00
2023-04-09T02:54:01.547Z,6.07
2023-04-09T02:55:04.225Z,5.75
2023-04-09T02:56:06.084Z,5.83
2023-04-09T02:57:08.598Z,5.94
2023-04-09T02:58:10.221Z,6.01
2023-04-09T02:59:12.760Z,5.99
2023-04-09T03:00:14.938Z,6.02
2023-04-09T03:01:18.863Z,6.04
2023-04-09T03:02:20.826Z,6.03
2023-04-09T03:03:23.622Z,5.96
2023-04-09T03:04:25.450Z,6.02
2023-04-09T03:05:28.097Z,6.01
2023-04-09T03:06:29.647Z,5.91
2023-04-09T03:07:32.161Z,5.96
2023-04-09T03:08:33.713Z,5.74
2023-04-09T03:09:36.248Z,5.43
2023-04-09T03:10:37.872Z,5.21
2023-04-09T03:11:40.341Z,5.07
2023-04-09T03:12:44.519Z,4.82
2023-04-09T03:13:47.038Z,4.77
2023-04-09T03:14:48.776Z,4.98
2023-04-09T03:15:52.779Z,4.95
2023-04-09T03:16:55.663Z,4.71
2023-04-09T03:17:58.185Z,4.08
2023-04-09T03:18:59.701Z,3.77
2023-04-09T03:20:02.216Z,3.47
2023-04-09T03:21:07.150Z,3.44
2023-04-09T03:22:08.708Z,3.57
2023-04-09T03:23:11.495Z,3.42
2023-04-09T03:24:13.005Z,3.54
2023-04-09T03:25:15.797Z,3.50
2023-04-09T03:26:17.390Z,3.52
2023-04-09T03:27:19.846Z,3.17
2023-04-09T03:28:21.419Z,2.93
2023-04-09T03:29:23.900Z,2.76
2023-04-09T03:30:25.710Z,2.77
2023-04-09T03:31:28.228Z,2.75
2023-04-09T03:32:31.187Z,2.78
2023-04-09T03:33:33.672Z,2.81
2023-04-09T03:34:35.446Z,3.22
2023-04-09T03:35:37.988Z,3.63
2023-04-09T03:36:40.559Z,3.89
2023-04-09T03:37:42.272Z,4.06
2023-04-09T03:38:44.760Z,4.29
2023-04-09T03:39:46.333Z,4.44
2023-04-09T03:40:48.831Z,4.21
2023-04-09T03:41:50.559Z,3.57
2023-04-09T03:42:52.986Z,3.31
2023-04-09T03:43:54.493Z,2.95
2023-04-09T03:44:56.999Z,2.62
2023-04-09T03:45:58.691Z,2.47
2023-04-09T03:47:01.246Z,2.31
2023-04-09T03:48:04.338Z,2.10
2023-04-09T03:49:06.830Z,2.13
2023-04-09T03:50:09.110Z,2.12
2023-04-09T03:51:12.919Z,2.17
2023-04-09T03:52:15.372Z,2.08
2023-04-09T03:53:18.000Z,2.03
2023-04-09T03:54:19.499Z,1.87
2023-04-09T03:55:22.120Z,1.92
2023-04-09T03:56:23.660Z,1.81
2023-04-09T03:57:26.137Z,1.79
2023-04-09T03:58:27.638Z,1.78
2023-04-09T03:59:30.397Z,1.71
2023-04-09T04:00:32.075Z,1.68
2023-04-09T04:01:34.931Z,1.75
2023-04-09T04:02:36.985Z,1.91
2023-04-09T04:03:41.092Z,1.97
2023-04-09T04:04:43.065Z,2.20
2023-04-09T04:05:45.607Z,2.52
2023-04-09T04:06:47.161Z,2.86
2023-04-09T04:07:49.726Z,3.07
2023-04-09T04:08:52.359Z,3.03
2023-04-09T04:09:55.043Z,2.46
2023-04-09T04:10:56.523Z,2.65
2023-04-09T04:11:59.094Z,2.46
2023-04-09T04:13:02.058Z,2.33
2023-04-09T04:14:04.602Z,2.33
2023-04-09T04:15:07.291Z,2.35
2023-04-09T04:16:10.656Z,2.45
2023-04-09T04:17:12.265Z,2.68
2023-04-09T04:18:14.904Z,2.98
2023-04-09T04:19:17.729Z,3.02
2023-04-09T04:20:20.574Z,2.92
2023-04-09T04:21:22.145Z,2.83
2023-04-09T04:22:26.255Z,2.35
2023-04-09T04:23:27.974Z,2.28
2023-04-09T04:24:30.436Z,2.57
2023-04-09T04:25:32.025Z,2.63
2023-04-09T04:26:34.524Z,2.61
2023-04-09T04:27:36.169Z,2.70
2023-04-09T04:28:39.573Z,2.62
2023-04-09T04:29:41.187Z,2.71
2023-04-09T04:30:43.738Z,2.61
2023-04-09T04:31:45.340Z,2.47
2023-04-09T04:32:48.245Z,2.12
2023-04-09T04:33:49.924Z,2.28
2023-04-09T04:34:53.802Z,2.26
2023-04-09T04:36:04.390Z,2.58
2023-04-09T04:37:06.863Z,2.70
2023-04-09T04:38:08.511Z,2.18
2023-04-09T04:39:13.849Z,2.17
2023-04-09T04:40:15.438Z,2.34
2023-04-09T04:41:18.091Z,2.41
2023-04-09T04:42:20.020Z,2.73
2023-04-09T04:43:22.510Z,2.96
2023-04-09T04:44:24.062Z,3.01
2023-04-09T04:45:26.629Z,3.18
2023-04-09T04:46:28.127Z,3.40
2023-04-09T04:47:30.640Z,3.58
2023-04-09T04:48:32.201Z,3.21
2023-04-09T04:49:34.681Z,3.41
2023-04-09T04:50:37.502Z,3.58
2023-04-09T04:51:39.949Z,3.70
2023-04-09T04:52:41.458Z,3.49
2023-04-09T04:53:43.975Z,2.99
2023-04-09T04:54:45.494Z,2.25
2023-04-09T04:55:47.954Z,1.81
2023-04-09T04:56:49.513Z,1.56
2023-04-09T04:57:52.443Z,1.64
2023-04-09T04:58:54.375Z,1.60
2023-04-09T04:59:56.938Z,1.74
2023-04-09T05:00:58.566Z,2.23
2023-04-09T05:02:02.586Z,2.49
2023-04-09T05:03:04.361Z,2.82
2023-04-09T05:04:07.042Z,3.07
2023-04-09T05:05:08.792Z,2.96
2023-04-09T05:06:12.609Z,2.81
2023-04-09T05:07:14.055Z,2.48
2023-04-09T05:08:16.499Z,2.17
2023-04-09T05:09:18.754Z,2.19
2023-04-09T05:10:22.003Z,2.24
2023-04-09T05:11:23.713Z,2.17
2023-04-09T05:12:26.272Z,2.26
2023-04-09T05:13:27.780Z,2.12
2023-04-09T05:14:30.274Z,2.16
2023-04-09T05:15:32.005Z,2.28
2023-04-09T05:16:34.592Z,2.55
2023-04-09T05:17:36.321Z,2.66
2023-04-09T05:18:38.785Z,2.81
2023-04-09T05:19:40.314Z,2.60
2023-04-09T05:20:42.838Z,2.68
2023-04-09T05:21:47.271Z,2.63
2023-04-09T05:22:50.074Z,2.55
2023-04-09T05:23:52.503Z,2.59
2023-04-09T05:24:54.045Z,2.30
2023-04-09T05:25:56.493Z,2.05
2023-04-09T05:26:58.028Z,1.86
2023-04-09T05:28:03.964Z,1.66
2023-04-09T05:29:06.718Z,1.65
2023-04-09T05:30:09.309Z,1.72
2023-04-09T05:31:13.320Z,1.65
2023-04-09T05:32:16.073Z,1.52
2023-04-09T05:33:18.530Z,1.51
2023-04-09T05:34:20.216Z,1.42
2023-04-09T05:35:22.733Z,1.50
2023-04-09T05:36:24.392Z,1.70
2023-04-09T05:37:28.146Z,1.98
2023-04-09T05:38:32.069Z,2.22
2023-04-09T05:39:34.539Z,2.36
2023-04-09T05:40:36.258Z,2.74
2023-04-09T05:41:38.835Z,2.71
2023-04-09T05:42:40.530Z,2.93
2023-04-09T05:43:43.652Z,3.09
2023-04-09T05:44:45.258Z,3.17
2023-04-09T05:45:47.729Z,3.07
2023-04-09T05:46:50.249Z,3.09
2023-04-09T05:47:52.863Z,3.18
2023-04-09T05:48:56.371Z,3.06
2023-04-09T05:49:58.823Z,3.25
2023-04-09T05:51:01.009Z,3.20
2023-04-09T05:52:03.664Z,3.38
2023-04-09T05:53:06.735Z,3.19
2023-04-09T05:54:09.140Z,3.34
2023-04-09T05:55:10.967Z,3.76
2023-04-09T05:56:17.111Z,3.60
2023-04-09T05:57:18.657Z,3.87
2023-04-09T05:58:21.580Z,4.14
2023-04-09T05:59:23.119Z,4.34
2023-04-09T06:00:25.718Z,4.50
2023-04-09T06:01:27.831Z,4.59
2023-04-09T06:02:30.420Z,4.73
2023-04-09T06:03:32.152Z,4.63
2023-04-09T06:04:34.699Z,4.56
2023-04-09T06:05:36.256Z,4.49
2023-04-09T06:06:39.651Z,4.20
2023-04-09T06:07:41.294Z,4.40
2023-04-09T06:08:45.576Z,4.32
2023-04-09T06:09:47.095Z,4.17
2023-04-09T06:10:49.713Z,3.54
2023-04-09T06:11:51.223Z,3.54
2023-04-09T06:12:53.839Z,3.71
2023-04-09T06:13:55.371Z,3.85
2023-04-09T06:14:57.811Z,3.98
2023-04-09T06:15:59.413Z,3.71
2023-04-09T06:17:01.927Z,3.72
2023-04-09T06:18:03.467Z,3.81
2023-04-09T06:19:06.326Z,3.92
2023-04-09T06:20:08.846Z,3.91
2023-04-09T06:21:13.451Z,3.37
2023-04-09T06:22:15.975Z,3.62
2023-04-09T06:23:17.476Z,3.63
2023-04-09T06:24:21.460Z,3.47
2023-04-09T06:25:23.982Z,3.73
2023-04-09T06:26:25.865Z,3.92
2023-04-09T06:27:28.265Z,3.98
2023-04-09T06:28:29.758Z,4.04
2023-04-09T06:29:32.222Z,3.78
2023-04-09T06:30:33.897Z,3.61
2023-04-09T06:31:36.457Z,3.48
2023-04-09T06:32:51.028Z,3.39
2023-04-09T06:33:56.338Z,3.36
2023-04-09T06:34:58.165Z,3.54
2023-04-09T06:36:00.903Z,3.67
2023-04-09T06:37:02.470Z,3.87
2023-04-09T06:38:04.894Z,3.83
2023-04-09T06:39:06.669Z,4.17
2023-04-09T06:40:11.932Z,4.53
2023-04-09T06:41:14.873Z,4.40
2023-04-09T06:42:17.301Z,4.33
2023-04-09T06:43:18.826Z,4.08
2023-04-09T06:44:21.480Z,4.20
2023-04-09T06:45:23.204Z,4.46
2023-04-09T06:46:25.986Z,4.84
2023-04-09T06:47:27.516Z,4.85
2023-04-09T06:48:33.201Z,5.04
2023-04-09T06:49:34.731Z,5.10
2023-04-09T06:50:37.285Z,4.88
2023-04-09T06:51:38.907Z,4.62
2023-04-09T06:52:41.545Z,4.59
2023-04-09T06:53:44.075Z,4.55
2023-04-09T06:54:46.185Z,4.74
2023-04-09T06:55:50.309Z,5.22
2023-04-09T06:56:51.981Z,5.53
2023-04-09T06:57:54.451Z,5.75
2023-04-09T06:58:56.912Z,5.91
2023-04-09T06:59:58.421Z,5.93
2023-04-09T07:01:01.120Z,5.66
2023-04-09T07:02:02.793Z,5.60
2023-04-09T07:03:08.149Z,5.52
2023-04-09T07:04:09.919Z,5.25
2023-04-09T07:05:13.108Z,4.97
2023-04-09T07:06:14.737Z,4.83
2023-04-09T07:07:17.223Z,4.85
2023-04-09T07:08:18.827Z,5.08
2023-04-09T07:09:21.358Z,5.42
2023-04-09T07:10:22.822Z,5.64
2023-04-09T07:11:26.694Z,5.94
2023-04-09T07:12:28.251Z,6.24
2023-04-09T07:13:31.295Z,6.45
2023-04-09T07:14:33.031Z,6.28
2023-04-09T07:15:35.570Z,6.40
2023-04-09T07:16:37.134Z,6.28
2023-04-09T07:17:39.748Z,6.24
2023-04-09T07:18:42.414Z,6.47
2023-04-09T07:19:43.919Z,6.38
2023-04-09T07:20:46.371Z,6.53
2023-04-09T07:21:48.791Z,6.66
2023-04-09T07:22:51.344Z,6.86
2023-04-09T07:23:53.059Z,6.90
2023-04-09T07:24:56.499Z,6.82
2023-04-09T07:25:58.958Z,6.89
2023-04-09T07:27:04.949Z,7.21
2023-04-09T07:28:07.481Z,7.48
2023-04-09T07:29:09.072Z,7.67
2023-04-09T07:30:12.025Z,7.76
2023-04-09T07:31:15.412Z,7.81
2023-04-09T07:32:17.176Z,7.38
2023-04-09T07:33:19.701Z,7.60
2023-04-09T07:34:21.607Z,7.35
2023-04-09T07:35:24.100Z,7.22
2023-04-09T07:36:26.595Z,7.27
2023-04-09T07:37:29.063Z,7.55
2023-04-09T07:38:31.608Z,7.84
2023-04-09T07:39:33.146Z,8.11
2023-04-09T07:40:36.681Z,8.35
2023-04-09T07:41:38.313Z,8.40
2023-04-09T07:42:42.453Z,8.45
2023-04-09T07:43:45.021Z,8.49
2023-04-09T07:44:47.506Z,8.54
2023-04-09T07:45:51.306Z,8.33
2023-04-09T07:46:52.880Z,8.40
2023-04-09T07:47:55.538Z,8.52
2023-04-09T07:48:58.050Z,8.62
2023-04-09T07:50:00.601Z,8.74
2023-04-09T07:51:03.141Z,8.66
2023-04-09T07:52:05.676Z,8.78
2023-04-09T07:53:10.580Z,8.65
2023-04-09T07:54:12.982Z,8.81
2023-04-09T07:55:16.741Z,8.84
2023-04-09T07:56:18.872Z,8.37
2023-04-09T07:57:21.354Z,8.33
2023-04-09T07:58:24.174Z,8.36
2023-04-09T07:59:27.610Z,8.46
2023-04-09T08:00:30.088Z,8.59
2023-04-09T08:01:31.594Z,8.88
2023-04-09T08:02:34.204Z,9.08
2023-04-09T08:03:36.302Z,9.18
2023-04-09T08:04:39.145Z,9.13
2023-04-09T08:05:41.248Z,9.03
2023-04-09T08:06:46.686Z,8.92
2023-04-09T08:07:49.144Z,8.47
2023-04-09T08:08:50.868Z,8.23
2023-04-09T08:09:53.470Z,8.00
2023-04-09T08:10:56.186Z,7.84
2023-04-09T08:11:58.642Z,7.67
2023-04-09T08:13:00.356Z,7.49
2023-04-09T08:14:06.163Z,7.61
2023-04-09T08:15:08.598Z,7.66
2023-04-09T08:16:11.079Z,7.60
2023-04-09T08:17:12.682Z,7.64
2023-04-09T08:18:15.067Z,7.53
2023-04-09T08:19:17.497Z,7.55
2023-04-09T08:20:19.973Z,7.34
2023-04-09T08:21:21.557Z,7.17
2023-04-09T08:22:23.945Z,7.15
2023-04-09T08:23:25.913Z,6.81
2023-04-09T08:24:28.346Z,6.95
2023-04-09T08:25:29.876Z,7.12
2023-04-09T08:26:32.715Z,7.23
2023-04-09T08:27:36.060Z,7.21
2023-04-09T08:28:37.797Z,7.14
2023-04-09T08:29:42.583Z,7.18
2023-04-09T08:30:44.682Z,7.24
2023-04-09T08:31:47.138Z,7.43
2023-04-09T08:32:50.044Z,7.46
2023-04-09T08:33:53.445Z,7.53
2023-04-09T08:34:56.068Z,7.21
2023-04-09T08:35:57.642Z,6.98
2023-04-09T08:37:00.724Z,7.00
2023-04-09T08:38:02.231Z,7.15
2023-04-09T08:39:04.864Z,7.49
2023-04-09T08:40:08.731Z,7.58
2023-04-09T08:41:18.676Z,7.77
2023-04-09T08:42:23.960Z,7.32
2023-04-09T08:43:41.891Z,7.30
2023-04-09T08:44:51.266Z,7.29
2023-04-09T08:45:53.993Z,7.48
2023-04-09T08:46:58.332Z,7.78
2023-04-09T08:48:04.150Z,7.93
2023-04-09T08:49:06.993Z,7.64
2023-04-09T08:50:09.205Z,7.82
2023-04-09T08:51:14.589Z,7.84
2023-04-09T08:52:21.736Z,8.00
2023-04-09T08:53:24.447Z,8.26
2023-04-09T08:54:26.996Z,7.91
2023-04-09T08:55:28.701Z,7.81
2023-04-09T08:56:31.453Z,7.69
2023-04-09T08:57:37.496Z,7.64
2023-04-09T08:58:43.582Z,7.76
2023-04-09T08:59:46.563Z,8.14
2023-04-09T09:00:49.702Z,7.98
2023-04-09T09:02:11.241Z,7.56
2023-04-09T09:03:14.866Z,7.31
2023-04-09T09:04:16.606Z,7.64
2023-04-09T09:05:37.015Z,8.03
2023-04-09T09:06:40.036Z,8.17
2023-04-09T09:07:54.728Z,8.07
2023-04-09T09:09:05.049Z,8.33
2023-04-09T09:10:08.719Z,8.66
2023-04-09T09:11:10.229Z,8.24
2023-04-09T09:12:12.803Z,8.29
2023-04-09T09:13:20.000Z,8.02
2023-04-09T09:14:22.442Z,7.87
2023-04-09T09:15:28.821Z,7.77
2023-04-09T09:16:34.711Z,7.94
2023-04-09T09:17:55.899Z,7.97
2023-04-09T09:18:58.637Z,8.05
2023-04-09T09:20:19.930Z,8.05
2023-04-09T09:21:22.014Z,8.25
2023-04-09T09:22:25.942Z,8.51
2023-04-09T09:23:36.493Z,8.68
2023-04-09T09:24:48.476Z,8.20
2023-04-09T09:25:51.859Z,8.36
2023-04-09T09:26:55.656Z,8.59
2023-04-09T09:28:07.396Z,9.00
2023-04-09T09:29:10.605Z,9.24
2023-04-09T09:30:21.988Z,9.35
2023-04-09T09:31:24.567Z,9.31
2023-04-09T09:32:27.947Z,8.79
2023-04-09T09:33:34.460Z,8.58
2023-04-09T09:34:37.036Z,8.93
2023-04-09T09:35:49.716Z,9.07
2023-04-09T09:36:52.314Z,9.34
2023-04-09T09:38:04.221Z,9.47
2023-04-09T09:39:10.267Z,9.49
2023-04-09T09:40:27.028Z,9.48
2023-04-09T09:41:29.530Z,9.79
2023-04-09T09:42:33.050Z,10.20
2023-04-09T09:43:41.520Z,10.61
2023-04-09T09:44:43.983Z,10.54
2023-04-09T09:45:47.030Z,10.26
2023-04-09T09:46:49.599Z,9.80
2023-04-09T09:47:53.090Z,9.50
2023-04-09T09:48:55.950Z,9.58
2023-04-09T09:49:57.562Z,9.58
2023-04-09T09:51:01.437Z,9.45
2023-04-09T09:52:09.782Z,9.42
2023-04-09T09:53:12.141Z,9.46
2023-04-09T09:54:19.472Z,9.73
2023-04-09T09:55:24.133Z,9.89
2023-04-09T09:56:32.614Z,10.12
2023-04-09T09:57:40.356Z,10.40
2023-04-09T09:58:46.726Z,10.49
2023-04-09T09:59:54.991Z,10.37
2023-04-09T10:00:57.515Z,10.56
2023-04-09T10:02:02.625Z,10.70
2023-04-09T10:03:13.138Z,10.47
2023-04-09T10:04:19.025Z,10.50
2023-04-09T10:05:25.005Z,10.64
2023-04-09T10:06:28.500Z,10.84
2023-04-09T10:07:33.204Z,11.12
2023-04-09T10:08:38.164Z,11.35
2023-04-09T10:09:43.443Z,11.62
2023-04-09T10:10:48.803Z,11.94
2023-04-09T10:11:51.487Z,12.19
2023-04-09T10:12:53.129Z,12.32
2023-04-09T10:13:58.454Z,12.25
2023-04-09T10:15:05.157Z,12.29
2023-04-09T10:16:08.780Z,12.23
2023-04-09T10:17:11.664Z,12.15
2023-04-09T10:18:16.012Z,11.95
2023-04-09T10:19:17.922Z,11.62
2023-04-09T10:20:27.101Z,11.44
2023-04-09T10:21:37.699Z,11.45
2023-04-09T10:22:39.920Z,11.73
2023-04-09T10:23:44.905Z,11.97
2023-04-09T10:24:47.318Z,12.24
2023-04-09T10:25:49.890Z,12.39
2023-04-09T10:26:55.364Z,12.56
2023-04-09T10:28:01.482Z,12.65
2023-04-09T10:29:06.816Z,12.78
2023-04-09T10:30:10.636Z,13.06
2023-04-09T10:31:13.368Z,12.97
2023-04-09T10:32:21.543Z,12.75
2023-04-09T10:33:27.871Z,12.24
2023-04-09T10:34:30.565Z,12.06
2023-04-09T10:35:32.143Z,12.48
2023-04-09T10:36:34.626Z,12.95
2023-04-09T10:37:37.091Z,13.26
2023-04-09T10:38:41.133Z,13.39
2023-04-09T10:39:47.277Z,14.08
2023-04-09T10:40:50.775Z,15.52
2023-04-09T10:41:55.561Z,16.62
2023-04-09T10:42:59.394Z,17.53
2023-04-09T10:44:01.829Z,18.99
2023-04-09T10:45:10.661Z,19.31
2023-04-09T10:46:29.494Z,20.09
2023-04-09T10:47:33.994Z,20.28
2023-04-09T10:48:37.030Z,19.80
2023-04-09T10:49:40.656Z,20.13
2023-04-09T10:50:45.086Z,18.73
2023-04-09T10:51:50.900Z,18.81
2023-04-09T10:52:54.944Z,20.29
2023-04-09T10:53:56.404Z,21.33
2023-04-09T10:54:58.920Z,22.56
2023-04-09T10:56:01.959Z,22.62
2023-04-09T10:57:20.174Z,20.82
2023-04-09T10:58:22.844Z,18.81
2023-04-09T10:59:24.432Z,18.82
2023-04-09T11:00:26.880Z,20.41
2023-04-09T11:01:28.508Z,20.69
2023-04-09T11:03:12.118Z,21.82
2023-04-09T11:04:21.576Z,23.35
2023-04-09T11:05:28.957Z,21.86
2023-04-09T11:06:32.327Z,23.51
2023-04-09T11:07:40.465Z,24.24
2023-04-09T11:08:45.340Z,25.49
2023-04-09T11:09:47.657Z,25.64
2023-04-09T11:10:52.254Z,25.55
2023-04-09T11:11:53.957Z,26.94
2023-04-09T11:12:56.389Z,27.50
2023-04-09T11:13:59.834Z,28.19
2023-04-09T11:15:01.318Z,28.38
2023-04-09T11:16:06.854Z,27.84
2023-04-09T11:17:08.833Z,28.18
2023-04-09T11:18:15.484Z,28.77
2023-04-09T11:19:19.060Z,29.26
2023-04-09T11:20:23.321Z,29.64
2023-04-09T11:21:27.713Z,30.32
2023-04-09T11:22:30.293Z,28.22
2023-04-09T11:23:34.052Z,26.85
2023-04-09T11:24:41.956Z,24.68
2023-04-09T11:25:49.410Z,25.76
2023-04-09T11:26:51.281Z,27.25
2023-04-09T11:27:54.382Z,27.74
2023-04-09T11:28:58.604Z,28.37
2023-04-09T11:30:00.090Z,29.17
2023-04-09T11:31:06.216Z,29.80
2023-04-09T11:32:07.810Z,30.63
2023-04-09T11:33:10.768Z,31.02
2023-04-09T11:34:13.539Z,29.78
2023-04-09T11:35:17.826Z,30.45
2023-04-09T11:36:20.443Z,30.04
2023-04-09T11:37:22.549Z,30.40
2023-04-09T11:38:27.598Z,30.65
2023-04-09T11:39:29.178Z,30.96
2023-04-09T11:40:31.666Z,31.58
2023-04-09T11:41:33.956Z,28.86
2023-04-09T11:42:37.818Z,24.44
2023-04-09T11:43:40.300Z,23.13
2023-04-09T11:44:42.189Z,23.84
2023-04-09T11:45:47.088Z,22.14
2023-04-09T11:46:49.167Z,23.21
2023-04-09T11:47:52.641Z,23.55
2023-04-09T11:48:55.867Z,24.58
2023-04-09T11:49:58.444Z,25.40
2023-04-09T11:51:03.964Z,25.41
2023-04-09T11:52:05.986Z,25.45
2023-04-09T11:53:19.139Z,23.99
2023-04-09T11:54:20.805Z,25.75
2023-04-09T11:55:27.143Z,26.86
2023-04-09T11:56:29.245Z,26.02
2023-04-09T11:57:43.813Z,26.32
2023-04-09T11:58:47.477Z,24.98
2023-04-09T11:59:49.111Z,23.42
2023-04-09T12:00:53.989Z,22.49
2023-04-09T12:01:58.131Z,20.86
2023-04-09T12:03:03.605Z,18.19
2023-04-09T12:04:06.948Z,20.43
2023-04-09T12:05:11.811Z,21.87
2023-04-09T12:06:16.415Z,21.41
2023-04-09T12:07:17.939Z,21.10
2023-04-09T12:08:25.449Z,21.46
2023-04-09T12:09:27.145Z,21.36
2023-04-09T12:10:31.039Z,23.13
2023-04-09T12:11:32.662Z,24.25
2023-04-09T12:12:42.616Z,24.30
2023-04-09T12:13:46.910Z,23.57
2023-04-09T12:14:48.427Z,23.51
2023-04-09T12:15:51.405Z,24.30
2023-04-09T12:16:53.027Z,24.55
2023-04-09T12:17:56.766Z,24.18
2023-04-09T12:19:01.005Z,21.40
2023-04-09T12:20:03.518Z,21.04
2023-04-09T12:21:06.112Z,21.66
2023-04-09T12:22:09.844Z,21.05
2023-04-09T12:23:13.885Z,21.60
2023-04-09T12:24:16.965Z,21.50
2023-04-09T12:25:19.394Z,22.63
2023-04-09T12:26:21.284Z,23.77
2023-04-09T12:27:24.026Z,22.83
2023-04-09T12:28:25.496Z,23.10
2023-04-09T12:29:29.848Z,21.16
2023-04-09T12:30:32.766Z,21.29
2023-04-09T12:31:34.291Z,20.32
2023-04-09T12:32:37.139Z,20.12
2023-04-09T12:33:40.357Z,20.26
2023-04-09T12:34:41.985Z,19.57
2023-04-09T12:35:44.764Z,18.00
2023-04-09T12:36:46.400Z,19.67
2023-04-09T12:37:50.713Z,21.69
2023-04-09T12:38:53.420Z,23.91
2023-04-09T12:39:55.372Z,23.06
2023-04-09T12:40:57.842Z,22.84
2023-04-09T12:41:59.328Z,22.73
2023-04-09T12:43:02.534Z,21.63
2023-04-09T12:44:04.927Z,20.70
2023-04-09T12:45:08.921Z,20.21
2023-04-09T12:46:10.888Z,18.91
2023-04-09T12:47:13.357Z,17.59
2023-04-09T12:48:15.816Z,19.19
2023-04-09T12:49:17.338Z,20.93
2023-04-09T12:50:21.935Z,22.70
2023-04-09T12:51:23.847Z,20.39
2023-04-09T12:52:26.436Z,19.63
2023-04-09T12:53:31.970Z,19.78
2023-04-09T12:54:33.519Z,19.15
2023-04-09T12:55:36.088Z,19.09
2023-04-09T12:56:37.794Z,18.53
2023-04-09T12:57:42.435Z,19.87
2023-04-09T12:58:44.145Z,20.95
2023-04-09T12:59:46.807Z,21.12
2023-04-09T13:00:51.911Z,20.72
2023-04-09T13:01:53.707Z,20.94
2023-04-09T13:02:56.714Z,22.23
2023-04-09T13:03:58.916Z,22.63
2023-04-09T13:05:01.793Z,20.82
2023-04-09T13:06:03.679Z,19.93
2023-04-09T13:07:06.761Z,20.22
2023-04-09T13:08:09.534Z,19.32
2023-04-09T13:09:12.501Z,18.21
2023-04-09T13:10:18.084Z,17.28
2023-04-09T13:11:22.791Z,18.49
2023-04-09T13:12:25.575Z,20.12
2023-04-09T13:13:28.626Z,21.92
2023-04-09T13:14:31.582Z,23.11
2023-04-09T13:15:33.147Z,24.88
2023-04-09T13:16:35.722Z,26.38
2023-04-09T13:17:37.325Z,27.79
2023-04-09T13:18:44.611Z,28.30
2023-04-09T13:19:46.497Z,27.05
2023-04-09T13:20:50.569Z,24.47
2023-04-09T13:21:52.348Z,22.70
2023-04-09T13:22:54.781Z,21.73
2023-04-09T13:23:56.233Z,20.15
2023-04-09T13:24:59.978Z,18.25
2023-04-09T13:26:01.550Z,19.06
2023-04-09T13:27:04.651Z,19.94
2023-04-09T13:28:06.508Z,19.64
2023-04-09T13:29:12.052Z,20.61
2023-04-09T13:30:14.724Z,19.25
2023-04-09T13:31:16.483Z,20.10
2023-04-09T13:32:21.071Z,22.05
2023-04-09T13:33:23.075Z,23.40
2023-04-09T13:34:25.970Z,21.54
2023-04-09T13:35:27.776Z,22.51
2023-04-09T13:36:31.409Z,23.88
2023-04-09T13:37:33.899Z,23.16
2023-04-09T13:38:35.623Z,22.75
2023-04-09T13:39:38.091Z,22.46
2023-04-09T13:40:41.191Z,22.49
2023-04-09T13:41:44.326Z,22.50
2023-04-09T13:42:46.818Z,21.64
2023-04-09T13:43:48.336Z,21.40
2023-04-09T13:44:53.877Z,20.98
2023-04-09T13:45:57.396Z,21.13
2023-04-09T13:47:00.003Z,22.98
2023-04-09T13:48:01.698Z,23.44
2023-04-09T13:49:04.147Z,21.92
2023-04-09T13:50:07.499Z,20.97
2023-04-09T13:51:09.951Z,19.88
2023-04-09T13:52:12.886Z,19.71
2023-04-09T13:53:14.476Z,20.33
2023-04-09T13:54:16.951Z,21.01
2023-04-09T13:55:18.568Z,22.25
2023-04-09T13:56:23.165Z,23.52
2023-04-09T13:57:24.657Z,23.06
2023-04-09T13:58:27.071Z,23.57